createdAt,value
2017-09-22T00:00:05.083Z,12.87
2017-09-22T00:02:33.427Z,11.37
2017-09-22T00:05:01.761Z,10.87
2017-09-22T00:07:30.098Z,13.50
2017-09-22T00:09:58.466Z,12.27
2017-09-22T00:12:26.835Z,11.90
2017-09-22T00:14:55.179Z,10.70
2017-09-22T00:17:23.519Z,11.17
2017-09-22T00:19:51.864Z,10.57
2017-09-22T00:22:20.227Z,10.77
2017-09-22T00:24:48.564Z,8.53
2017-09-22T00:27:16.931Z,9.73
2017-09-22T00:29:45.243Z,9.97
2017-09-22T00:32:13.579Z,8.50
2017-09-22T00:34:41.911Z,8.97
2017-09-22T00:37:10.281Z,8.70
2017-09-22T00:39:38.613Z,10.23
2017-09-22T00:42:06.943Z,9.23
2017-09-22T00:44:35.283Z,9.20
2017-09-22T00:47:03.622Z,9.17
2017-09-22T00:49:31.956Z,9.30
2017-09-22T00:52:00.285Z,8.07
2017-09-22T00:54:28.647Z,7.90
2017-09-22T00:56:57.002Z,9.30
2017-09-22T00:59:25.330Z,8.30
2017-09-22T01:01:53.671Z,8.60
2017-09-22T01:04:22.003Z,8.70
2017-09-22T01:06:50.363Z,9.20
2017-09-22T01:09:18.693Z,8.97
2017-09-22T01:11:47.024Z,9.87
2017-09-22T01:14:15.359Z,9.10
2017-09-22T01:16:43.692Z,9.00
2017-09-22T01:19:12.058Z,8.80
2017-09-22T01:21:40.398Z,9.87
2017-09-22T01:24:08.754Z,9.37
2017-09-22T01:26:37.090Z,9.73
2017-09-22T01:29:05.429Z,8.30
2017-09-22T01:31:33.791Z,8.67
2017-09-22T01:34:02.421Z,8.13
2017-09-22T01:36:30.789Z,8.07
2017-09-22T01:38:59.118Z,8.50
2017-09-22T01:41:27.482Z,9.50
2017-09-22T01:43:55.842Z,10.23
2017-09-22T01:46:24.183Z,9.60
2017-09-22T01:48:52.547Z,10.87
2017-09-22T01:51:20.915Z,9.20
2017-09-22T01:53:49.251Z,10.53
2017-09-22T01:56:17.623Z,10.60
2017-09-22T01:58:45.954Z,9.17
2017-09-22T02:01:14.435Z,10.60
2017-09-22T02:03:42.774Z,10.77
2017-09-22T02:06:11.122Z,11.33
2017-09-22T02:08:39.509Z,10.27
2017-09-22T02:11:07.855Z,10.40
2017-09-22T02:13:36.186Z,9.43
2017-09-22T02:16:04.527Z,10.37
2017-09-22T02:18:32.868Z,11.07
2017-09-22T02:21:01.239Z,10.70
2017-09-22T02:23:29.578Z,10.97
2017-09-22T02:25:57.947Z,11.20
2017-09-22T02:28:26.293Z,11.30
2017-09-22T02:30:54.656Z,10.70
2017-09-22T02:33:22.994Z,10.97
2017-09-22T02:35:51.339Z,11.43
2017-09-22T02:38:19.714Z,10.93
2017-09-22T02:40:48.053Z,11.37
2017-09-22T02:43:16.423Z,12.13
2017-09-22T02:45:44.759Z,12.43
2017-09-22T02:48:13.135Z,11.03
2017-09-22T02:50:41.485Z,12.13
2017-09-22T02:53:09.827Z,11.70
2017-09-22T02:55:38.180Z,12.30
2017-09-22T02:58:06.520Z,11.60
2017-09-22T03:00:34.872Z,11.17
2017-09-22T03:03:03.214Z,11.93
2017-09-22T03:05:31.586Z,11.50
2017-09-22T03:07:59.930Z,13.23
2017-09-22T03:10:28.302Z,11.43
2017-09-22T03:12:56.667Z,12.87
2017-09-22T03:15:25.006Z,11.70
2017-09-22T03:17:53.351Z,11.00
2017-09-22T03:20:21.685Z,11.87
2017-09-22T03:22:50.066Z,13.00
2017-09-22T03:25:18.414Z,12.60
2017-09-22T03:27:46.746Z,13.67
2017-09-22T03:30:15.118Z,13.77
2017-09-22T03:32:43.451Z,12.70
2017-09-22T03:35:11.825Z,14.50
2017-09-22T03:37:40.190Z,13.53
2017-09-22T03:40:08.527Z,13.70
2017-09-22T03:42:36.891Z,14.57
2017-09-22T03:45:05.354Z,14.43
2017-09-22T03:47:33.689Z,15.93
2017-09-22T03:50:02.039Z,15.10
2017-09-22T03:52:30.383Z,13.73
2017-09-22T03:54:58.763Z,17.13
2017-09-22T03:57:27.110Z,17.13
2017-09-22T03:59:55.450Z,15.73
2017-09-22T04:02:23.782Z,16.37
2017-09-22T04:04:52.132Z,16.13
2017-09-22T04:07:20.494Z,15.57
2017-09-22T04:09:48.843Z,16.13
2017-09-22T04:12:17.237Z,15.43
2017-09-22T04:14:45.598Z,16.40
2017-09-22T04:17:13.938Z,15.57
2017-09-22T04:19:42.293Z,14.43
2017-09-22T04:22:10.638Z,15.07
2017-09-22T04:24:39.018Z,15.00
2017-09-22T04:27:07.378Z,16.53
2017-09-22T04:29:35.709Z,15.40
2017-09-22T04:32:04.048Z,16.53
2017-09-22T04:34:32.386Z,15.20
2017-09-22T04:37:00.803Z,16.57
2017-09-22T04:39:29.143Z,16.23
2017-09-22T04:41:57.508Z,16.30
2017-09-22T04:44:25.985Z,17.33
2017-09-22T04:46:54.322Z,17.20
2017-09-22T04:49:22.657Z,16.07
2017-09-22T04:51:51.039Z,16.77
2017-09-22T04:54:19.369Z,16.10
2017-09-22T04:56:47.716Z,16.00
2017-09-22T04:59:16.075Z,17.47
2017-09-22T05:01:44.410Z,16.27
2017-09-22T05:04:12.757Z,14.37
2017-09-22T05:06:41.099Z,15.63
2017-09-22T05:09:09.466Z,15.33
2017-09-22T05:11:37.807Z,16.80
2017-09-22T05:14:06.172Z,17.47
2017-09-22T05:16:34.509Z,18.77
2017-09-22T05:19:02.970Z,17.07
2017-09-22T05:21:31.307Z,18.00
2017-09-22T05:23:59.710Z,18.20
2017-09-22T05:26:28.047Z,18.63
2017-09-22T05:28:56.423Z,17.10
2017-09-22T05:31:25.240Z,17.60
2017-09-22T05:33:53.758Z,16.87
2017-09-22T05:36:22.104Z,15.63
2017-09-22T05:38:50.442Z,16.30
2017-09-22T05:41:18.835Z,15.97
2017-09-22T05:43:47.182Z,16.57
2017-09-22T05:46:15.793Z,17.60
2017-09-22T05:48:44.363Z,16.33
2017-09-22T05:51:12.694Z,17.07
2017-09-22T05:53:41.047Z,17.80
2017-09-22T05:56:09.423Z,17.10
2017-09-22T05:58:37.799Z,17.90
2017-09-22T06:01:06.138Z,17.30
2017-09-22T06:03:34.509Z,17.30
2017-09-22T06:06:02.866Z,17.87
2017-09-22T06:08:31.230Z,17.50
2017-09-22T06:10:59.572Z,17.03
2017-09-22T06:13:27.907Z,17.00
2017-09-22T06:15:56.255Z,15.73
2017-09-22T06:18:24.643Z,16.10
2017-09-22T06:20:52.982Z,15.33
2017-09-22T06:23:21.349Z,14.13
2017-09-22T06:25:49.705Z,14.27
2017-09-22T06:28:18.056Z,11.40
2017-09-22T06:30:46.444Z,10.07
2017-09-22T06:33:14.775Z,10.17
2017-09-22T06:35:43.128Z,9.57
2017-09-22T06:38:11.504Z,9.80
2017-09-22T06:40:39.841Z,10.10
2017-09-22T06:43:08.190Z,9.93
2017-09-22T06:45:36.527Z,10.90
2017-09-22T06:48:04.874Z,11.07
2017-09-22T06:50:33.211Z,9.10
2017-09-22T06:53:01.584Z,7.50
2017-09-22T06:55:29.926Z,7.13
2017-09-22T06:57:58.284Z,7.63
2017-09-22T07:00:26.627Z,7.90
2017-09-22T07:02:54.979Z,8.00
2017-09-22T07:05:23.318Z,7.90
2017-09-22T07:07:51.667Z,7.97
2017-09-22T07:10:20.007Z,7.30
2017-09-22T07:12:48.375Z,6.23
2017-09-22T07:15:16.734Z,6.40
2017-09-22T07:17:45.104Z,6.20
2017-09-22T07:20:13.445Z,6.63
2017-09-22T07:22:41.814Z,5.80
2017-09-22T07:25:10.160Z,5.50
2017-09-22T07:27:38.521Z,6.17
2017-09-22T07:30:06.862Z,5.40
2017-09-22T07:32:35.238Z,6.23
2017-09-22T07:35:03.711Z,5.30
2017-09-22T07:37:32.058Z,6.17
2017-09-22T07:40:00.526Z,6.53
2017-09-22T07:42:28.863Z,6.20
2017-09-22T07:44:57.259Z,6.00
2017-09-22T07:47:25.611Z,6.40
2017-09-22T07:49:53.951Z,6.57
2017-09-22T07:52:22.314Z,6.87
2017-09-22T07:54:50.660Z,7.10
2017-09-22T07:57:19.057Z,6.00
2017-09-22T07:59:47.395Z,6.10
2017-09-22T08:02:15.744Z,6.07
2017-09-22T08:04:44.086Z,7.80
2017-09-22T08:07:12.427Z,9.30
2017-09-22T08:09:40.769Z,9.70
2017-09-22T08:12:09.151Z,8.30
2017-09-22T08:14:37.494Z,8.47
2017-09-22T08:17:05.867Z,8.43
2017-09-22T08:19:34.251Z,7.10
2017-09-22T08:22:02.592Z,7.40
2017-09-22T08:24:31.070Z,6.50
2017-09-22T08:26:59.438Z,6.10
2017-09-22T08:29:27.776Z,7.23
2017-09-22T08:31:56.117Z,7.00
2017-09-22T08:34:24.487Z,6.80
2017-09-22T08:36:52.809Z,6.50
2017-09-22T08:39:21.151Z,6.17
2017-09-22T08:41:49.769Z,5.33
2017-09-22T08:44:18.744Z,5.90
2017-09-22T08:46:47.548Z,5.20
2017-09-22T08:49:16.718Z,4.60
2017-09-22T08:51:45.685Z,4.47
2017-09-22T08:54:14.769Z,4.10
2017-09-22T08:56:43.563Z,3.83
2017-09-22T08:59:12.264Z,3.20
2017-09-22T09:01:40.715Z,3.10
2017-09-22T09:04:09.052Z,3.80
2017-09-22T09:06:37.390Z,4.23
2017-09-22T09:09:05.754Z,3.80
2017-09-22T09:11:34.100Z,3.50
2017-09-22T09:14:02.466Z,4.20
2017-09-22T09:16:30.804Z,4.00
2017-09-22T09:18:59.142Z,3.00
2017-09-22T09:21:27.478Z,3.70
2017-09-22T09:23:55.851Z,4.00
2017-09-22T09:26:24.177Z,3.70
2017-09-22T09:28:52.532Z,3.87
2017-09-22T09:31:20.885Z,3.97
2017-09-22T09:33:49.206Z,3.57
2017-09-22T09:36:17.552Z,4.13
2017-09-22T09:38:45.948Z,4.10
2017-09-22T09:41:14.412Z,4.40
2017-09-22T09:43:42.754Z,4.47
2017-09-22T09:46:11.095Z,4.10
2017-09-22T09:48:39.449Z,3.70
2017-09-22T09:51:07.795Z,4.07
2017-09-22T09:53:36.126Z,4.10
2017-09-22T09:56:04.477Z,3.90
2017-09-22T09:58:32.894Z,4.50
2017-09-22T10:01:01.244Z,4.90
2017-09-22T10:03:29.602Z,3.87
2017-09-22T10:05:58.074Z,3.70
2017-09-22T10:08:26.421Z,3.50
2017-09-22T10:10:54.770Z,3.63
2017-09-22T10:13:23.126Z,3.30
2017-09-22T10:15:51.482Z,3.60
2017-09-22T10:18:19.828Z,3.60
2017-09-22T10:20:48.194Z,3.90
2017-09-22T10:23:16.655Z,3.77
2017-09-22T10:25:44.997Z,3.40
2017-09-22T10:28:13.330Z,3.97
2017-09-22T10:30:41.671Z,3.47
2017-09-22T10:33:10.048Z,3.67
2017-09-22T10:35:38.415Z,3.60
2017-09-22T10:38:06.751Z,4.23
2017-09-22T10:40:35.106Z,4.80
2017-09-22T10:43:03.455Z,4.87
2017-09-22T10:45:31.784Z,5.33
2017-09-22T10:48:08.764Z,5.30
2017-09-22T10:50:42.567Z,5.20
2017-09-22T10:53:10.930Z,4.50
2017-09-22T10:55:39.275Z,4.53
2017-09-22T10:58:07.638Z,4.83
2017-09-22T11:00:36.007Z,4.80
2017-09-22T11:03:04.363Z,4.70
2017-09-22T11:05:32.695Z,4.60
2017-09-22T11:08:01.054Z,4.67
2017-09-22T11:10:29.393Z,5.63
2017-09-22T11:12:57.751Z,5.40
2017-09-22T11:15:26.093Z,5.57
2017-09-22T11:17:54.433Z,5.43
2017-09-22T11:20:22.774Z,4.93
2017-09-22T11:22:51.135Z,5.67
2017-09-22T11:25:19.475Z,4.60
2017-09-22T11:27:47.861Z,3.80
2017-09-22T11:30:16.200Z,4.60
2017-09-22T11:32:44.563Z,4.17
2017-09-22T11:35:12.894Z,3.93
2017-09-22T11:37:41.260Z,4.23
2017-09-22T11:40:09.595Z,3.43
2017-09-22T11:42:37.955Z,4.13
2017-09-22T11:45:06.450Z,4.27
2017-09-22T11:47:34.792Z,5.17
2017-09-22T11:50:03.133Z,5.20
2017-09-22T11:52:31.507Z,5.80
2017-09-22T11:54:59.870Z,5.70
2017-09-22T11:57:28.229Z,5.10
2017-09-22T11:59:56.595Z,5.30
2017-09-22T12:02:25.014Z,6.13
2017-09-22T12:04:53.518Z,7.00
2017-09-22T12:07:22.164Z,5.90
2017-09-22T12:09:51.147Z,6.27
2017-09-22T12:12:19.831Z,6.20
2017-09-22T12:14:48.696Z,5.60
2017-09-22T12:17:17.800Z,6.17
2017-09-22T12:19:46.281Z,6.30
2017-09-22T12:22:15.080Z,5.97
2017-09-22T12:24:43.784Z,5.80
2017-09-22T12:27:19.453Z,5.33
2017-09-22T12:29:48.270Z,5.87
2017-09-22T12:32:16.838Z,5.20
2017-09-22T12:34:45.497Z,5.30
2017-09-22T12:37:14.129Z,5.30
2017-09-22T12:39:42.710Z,5.57
2017-09-22T12:42:11.663Z,6.17
2017-09-22T12:44:40.127Z,5.97
2017-09-22T12:47:08.733Z,6.60
2017-09-22T12:49:37.587Z,8.00
2017-09-22T12:52:06.746Z,6.43
2017-09-22T12:54:35.979Z,6.00
2017-09-22T12:57:04.745Z,6.43
2017-09-22T12:59:33.372Z,6.47
2017-09-22T13:02:02.227Z,5.77
2017-09-22T13:04:31.428Z,5.63
2017-09-22T13:07:00.036Z,5.30
2017-09-22T13:09:28.707Z,5.43
2017-09-22T13:11:57.302Z,5.83
2017-09-22T13:14:25.647Z,5.37
2017-09-22T13:16:55.691Z,6.37
2017-09-22T13:19:24.309Z,5.80
2017-09-22T13:21:53.065Z,6.10
2017-09-22T13:24:21.452Z,6.07
2017-09-22T13:26:49.786Z,6.40
2017-09-22T13:29:18.154Z,7.07
2017-09-22T13:31:46.494Z,6.67
2017-09-22T13:34:14.847Z,7.47
2017-09-22T13:36:43.456Z,6.33
2017-09-22T13:39:11.827Z,6.00
2017-09-22T13:41:40.199Z,5.27
2017-09-22T13:44:08.539Z,5.47
2017-09-22T13:46:36.863Z,5.30
2017-09-22T13:49:05.197Z,5.17
2017-09-22T13:51:33.666Z,5.13
2017-09-22T13:54:02.008Z,6.00
2017-09-22T13:56:30.342Z,5.33
2017-09-22T13:58:58.673Z,5.80
2017-09-22T14:01:27.009Z,6.50
2017-09-22T14:03:55.379Z,7.50
2017-09-22T14:06:23.745Z,6.70
2017-09-22T14:08:52.115Z,7.27
2017-09-22T14:11:20.452Z,7.30
2017-09-22T14:13:48.787Z,7.50
2017-09-22T14:16:17.179Z,6.90
2017-09-22T14:18:45.514Z,7.73
2017-09-22T14:21:13.878Z,7.50
2017-09-22T14:23:42.219Z,7.70
2017-09-22T14:26:10.555Z,6.10
2017-09-22T14:28:38.890Z,6.17
2017-09-22T14:31:07.224Z,6.37
2017-09-22T14:33:35.592Z,6.03
2017-09-22T14:36:03.919Z,5.77
2017-09-22T14:38:32.378Z,5.53
2017-09-22T14:41:00.710Z,6.20
2017-09-22T14:43:29.041Z,6.77
2017-09-22T14:45:57.378Z,6.50
2017-09-22T14:48:25.847Z,6.07
2017-09-22T14:50:54.182Z,6.00
2017-09-22T14:53:22.550Z,6.30
2017-09-22T14:55:50.892Z,6.40
2017-09-22T14:58:19.254Z,6.37
2017-09-22T15:00:47.592Z,7.20
2017-09-22T15:03:15.973Z,6.93
2017-09-22T15:05:44.303Z,7.00
2017-09-22T15:08:12.694Z,7.23
2017-09-22T15:10:41.046Z,7.60
2017-09-22T15:13:09.387Z,7.93
2017-09-22T15:15:37.747Z,7.43
2017-09-22T15:18:06.084Z,7.13
2017-09-22T15:20:34.415Z,6.53
2017-09-22T15:23:02.746Z,7.73
2017-09-22T15:25:31.118Z,8.17
2017-09-22T15:27:59.467Z,8.23
2017-09-22T15:30:27.831Z,8.27
2017-09-22T15:32:56.166Z,8.57
2017-09-22T15:35:24.505Z,8.63
2017-09-22T15:37:52.879Z,8.93
2017-09-22T15:40:21.223Z,9.27
2017-09-22T15:42:49.615Z,9.73
2017-09-22T15:45:17.946Z,9.27
2017-09-22T15:47:47.219Z,10.77
2017-09-22T15:50:15.570Z,11.07
2017-09-22T15:52:43.911Z,9.80
2017-09-22T15:55:12.251Z,10.40
2017-09-22T15:57:41.860Z,9.90
2017-09-22T16:00:10.229Z,10.57
2017-09-22T16:02:38.578Z,10.60
2017-09-22T16:05:06.958Z,10.27
2017-09-22T16:07:35.316Z,10.90
2017-09-22T16:10:03.699Z,11.90
2017-09-22T16:12:32.150Z,12.70
2017-09-22T16:15:00.533Z,10.80
2017-09-22T16:17:28.879Z,11.57
2017-09-22T16:19:57.232Z,10.93
2017-09-22T16:22:25.602Z,10.87
2017-09-22T16:24:53.977Z,11.60
2017-09-22T16:27:22.371Z,12.57
2017-09-22T16:29:50.719Z,12.40
2017-09-22T16:32:19.062Z,11.30
2017-09-22T16:34:47.421Z,12.20
2017-09-22T16:37:15.773Z,12.23
2017-09-22T16:39:44.139Z,13.43
2017-09-22T16:42:12.756Z,14.87
2017-09-22T16:44:41.433Z,13.33
2017-09-22T16:47:09.790Z,15.03
2017-09-22T16:49:39.114Z,15.80
2017-09-22T16:52:07.466Z,15.50
2017-09-22T16:54:35.826Z,17.30
2017-09-22T16:57:06.489Z,18.80
2017-09-22T16:59:36.483Z,18.83
2017-09-22T17:02:06.486Z,19.80
2017-09-22T17:04:35.692Z,21.90
2017-09-22T17:07:04.806Z,23.40
2017-09-22T17:09:34.032Z,19.80
2017-09-22T17:12:03.133Z,19.80
2017-09-22T17:14:32.690Z,17.90
2017-09-22T17:17:02.952Z,16.00
2017-09-22T17:19:32.617Z,16.17
2017-09-22T17:22:02.161Z,16.63
2017-09-22T17:24:33.228Z,15.90
2017-09-22T17:27:03.482Z,16.90
2017-09-22T17:29:32.850Z,16.40
2017-09-22T17:32:01.985Z,16.03
2017-09-22T17:34:32.066Z,16.70
2017-09-22T17:37:01.248Z,16.20
2017-09-22T17:39:30.549Z,16.90
2017-09-22T17:41:59.720Z,15.07
2017-09-22T17:44:28.983Z,17.83
2017-09-22T17:46:58.223Z,17.80
2017-09-22T17:49:27.367Z,18.77
2017-09-22T17:51:56.497Z,18.83
2017-09-22T17:54:25.584Z,18.73
2017-09-22T17:56:54.735Z,19.47
2017-09-22T17:59:23.973Z,17.83
2017-09-22T18:01:52.907Z,19.10
2017-09-22T18:04:22.363Z,19.03
2017-09-22T18:06:52.532Z,18.70
2017-09-22T18:09:21.840Z,18.20
2017-09-22T18:11:51.142Z,19.93
2017-09-22T18:14:20.167Z,18.93
2017-09-22T18:16:49.188Z,19.40
2017-09-22T18:19:18.320Z,20.67
2017-09-22T18:21:47.817Z,18.90
2017-09-22T18:24:16.979Z,21.70
2017-09-22T18:26:46.119Z,21.63
2017-09-22T18:29:15.197Z,20.97
2017-09-22T18:31:44.430Z,20.60
2017-09-22T18:34:14.444Z,20.50
2017-09-22T18:36:42.897Z,22.53
2017-09-22T18:39:11.257Z,21.63
2017-09-22T18:41:39.603Z,20.57
2017-09-22T18:44:07.948Z,22.20
2017-09-22T18:46:36.318Z,21.97
2017-09-22T18:49:04.667Z,21.03
2017-09-22T18:51:33.059Z,22.60
2017-09-22T18:54:01.447Z,23.00
2017-09-22T18:56:29.794Z,24.13
2017-09-22T18:58:58.195Z,20.30
2017-09-22T19:01:26.552Z,20.33
2017-09-22T19:03:54.902Z,24.40
2017-09-22T19:06:23.257Z,23.17
2017-09-22T19:08:51.600Z,20.73
2017-09-22T19:11:19.992Z,20.00
2017-09-22T19:13:48.338Z,20.50
2017-09-22T19:16:16.699Z,21.93
2017-09-22T19:18:45.060Z,22.93
2017-09-22T19:21:13.405Z,21.90
2017-09-22T19:23:41.754Z,20.90
2017-09-22T19:26:10.111Z,21.10
2017-09-22T19:28:38.455Z,22.90
2017-09-22T19:31:06.818Z,21.50
2017-09-22T19:33:35.376Z,22.20
2017-09-22T19:36:03.751Z,21.47
2017-09-22T19:38:32.107Z,22.37
2017-09-22T19:41:00.463Z,24.37
2017-09-22T19:43:28.815Z,23.10
2017-09-22T19:45:57.161Z,20.83
2017-09-22T19:48:25.644Z,20.80
2017-09-22T19:50:53.982Z,22.30
2017-09-22T19:53:22.330Z,20.80
2017-09-22T19:55:50.679Z,21.27
2017-09-22T19:58:19.027Z,21.30
2017-09-22T20:00:47.512Z,21.80
2017-09-22T20:03:15.870Z,22.73
2017-09-22T20:05:44.218Z,20.00
2017-09-22T20:08:12.562Z,22.07
2017-09-22T20:10:40.915Z,23.10
2017-09-22T20:13:09.289Z,21.43
2017-09-22T20:15:37.631Z,20.63
2017-09-22T20:18:06.025Z,21.57
2017-09-22T20:20:34.419Z,22.57
2017-09-22T20:23:02.761Z,23.80
2017-09-22T20:25:31.139Z,21.90
2017-09-22T20:27:59.494Z,23.50
2017-09-22T20:30:27.913Z,24.30
2017-09-22T20:32:56.279Z,23.93
2017-09-22T20:35:24.625Z,25.50
2017-09-22T20:37:52.975Z,24.80
2017-09-22T20:40:21.342Z,23.03
2017-09-22T20:42:49.727Z,23.27
2017-09-22T20:45:18.110Z,23.93
2017-09-22T20:47:46.455Z,21.90
2017-09-22T20:50:14.944Z,23.37
2017-09-22T20:52:43.294Z,23.00
2017-09-22T20:55:11.721Z,24.57
2017-09-22T20:57:40.065Z,23.43
2017-09-22T21:00:08.549Z,25.00
2017-09-22T21:02:36.900Z,25.87
2017-09-22T21:05:05.247Z,23.23
2017-09-22T21:07:33.626Z,23.47
2017-09-22T21:10:02.013Z,22.10
2017-09-22T21:12:30.356Z,21.90
2017-09-22T21:14:58.706Z,21.90
2017-09-22T21:17:27.051Z,22.57
2017-09-22T21:19:55.394Z,24.33
2017-09-22T21:22:23.738Z,22.57
2017-09-22T21:24:52.114Z,24.70
2017-09-22T21:27:20.463Z,23.17
2017-09-22T21:29:48.814Z,22.77
2017-09-22T21:32:17.154Z,23.47
2017-09-22T21:34:45.535Z,25.43
2017-09-22T21:37:13.884Z,26.30
2017-09-22T21:39:42.845Z,26.43
2017-09-22T21:42:11.198Z,27.73
2017-09-22T21:44:39.578Z,31.30
2017-09-22T21:47:07.932Z,29.47
2017-09-22T21:49:36.321Z,27.20
2017-09-22T21:52:04.852Z,25.53
2017-09-22T21:54:33.226Z,27.47
2017-09-22T21:57:01.574Z,28.73
2017-09-22T21:59:29.920Z,29.70
2017-09-22T22:01:58.459Z,29.30
2017-09-22T22:07:31.084Z,29.27
2017-09-22T22:12:34.227Z,29.33
2017-09-22T22:15:02.786Z,31.53
2017-09-22T22:17:31.147Z,32.93
2017-09-22T22:19:59.527Z,32.60
2017-09-22T22:22:27.906Z,35.00
2017-09-22T22:24:56.267Z,33.27
2017-09-22T22:27:24.666Z,35.20
2017-09-22T22:29:53.022Z,35.13
2017-09-22T22:32:21.372Z,35.20
2017-09-22T22:34:49.753Z,36.10
2017-09-22T22:37:18.111Z,39.40
2017-09-22T22:39:47.403Z,39.60
2017-09-22T22:42:15.761Z,36.80
2017-09-22T22:44:44.137Z,34.97
2017-09-22T22:47:12.499Z,31.80
2017-09-22T22:49:40.862Z,29.80
2017-09-22T22:52:09.243Z,27.97
2017-09-22T22:54:37.604Z,28.33
2017-09-22T22:57:05.978Z,29.13
2017-09-22T22:59:34.335Z,31.83
2017-09-22T23:02:02.723Z,32.23
2017-09-22T23:04:31.083Z,36.60
2017-09-22T23:06:59.442Z,36.40
2017-09-22T23:09:27.824Z,36.83
2017-09-22T23:11:56.178Z,35.00
2017-09-22T23:14:24.581Z,36.60
2017-09-22T23:16:52.941Z,37.33
2017-09-22T23:19:21.304Z,37.30
2017-09-22T23:21:49.682Z,37.17
2017-09-22T23:24:18.035Z,42.70
2017-09-22T23:26:46.418Z,40.20
2017-09-22T23:29:14.785Z,38.20
2017-09-22T23:31:43.160Z,39.37
2017-09-22T23:34:11.555Z,38.40
2017-09-22T23:36:39.910Z,37.03
2017-09-22T23:39:08.308Z,34.60
2017-09-22T23:41:36.684Z,33.50
2017-09-22T23:44:05.060Z,32.63
2017-09-22T23:46:33.409Z,32.60
2017-09-22T23:49:01.790Z,34.90
2017-09-22T23:51:30.147Z,38.27
2017-09-22T23:53:58.763Z,39.17
2017-09-22T23:56:27.128Z,36.23
2017-09-22T23:58:55.479Z,33.43
